createdAt,value
2018-10-11T00:01:27.723Z,23.70
2018-10-11T00:04:01.546Z,21.37
2018-10-11T00:06:35.511Z,21.57
2018-10-11T00:09:10.764Z,21.85
2018-10-11T00:11:44.677Z,20.88
2018-10-11T00:14:18.577Z,21.35
2018-10-11T00:16:52.435Z,21.55
2018-10-11T00:19:26.248Z,26.00
2018-10-11T00:22:00.109Z,20.95
2018-10-11T00:24:33.913Z,26.37
2018-10-11T00:27:07.853Z,27.73
2018-10-11T00:29:41.763Z,23.52
2018-10-11T00:32:15.679Z,22.17
2018-10-11T00:34:49.499Z,25.50
2018-10-11T00:37:23.399Z,24.27
2018-10-11T00:39:57.260Z,22.45
2018-10-11T00:42:31.142Z,23.62
2018-10-11T00:45:05.061Z,20.90
2018-10-11T00:47:39.008Z,21.30
2018-10-11T00:50:12.833Z,23.15
2018-10-11T00:52:46.747Z,23.25
2018-10-11T00:55:20.579Z,29.30
2018-10-11T00:57:54.521Z,21.55
2018-10-11T01:00:28.354Z,25.88
2018-10-11T01:03:02.196Z,25.68
2018-10-11T01:05:36.005Z,25.40
2018-10-11T01:08:09.996Z,22.87
2018-10-11T01:10:43.792Z,28.55
2018-10-11T01:13:17.777Z,29.92
2018-10-11T01:15:51.645Z,31.15
2018-10-11T01:18:25.613Z,27.75
2018-10-11T01:20:59.435Z,27.27
2018-10-11T01:23:33.291Z,28.38
2018-10-11T01:26:07.181Z,29.45
2018-10-11T01:28:41.093Z,28.12
2018-10-11T01:31:22.319Z,26.68
2018-10-11T01:33:56.589Z,26.73
2018-10-11T01:36:30.584Z,26.40
2018-10-11T01:39:05.258Z,25.95
2018-10-11T01:41:39.239Z,26.35
2018-10-11T01:44:13.217Z,28.45
2018-10-11T01:46:47.148Z,26.07
2018-10-11T01:49:21.219Z,30.60
2018-10-11T01:51:55.219Z,27.80
2018-10-11T01:54:29.223Z,30.92
2018-10-11T01:57:03.296Z,34.65
2018-10-11T01:59:38.984Z,34.35
2018-10-11T02:02:12.938Z,32.95
2018-10-11T02:04:46.902Z,28.10
2018-10-11T02:07:20.878Z,32.75
2018-10-11T02:09:54.858Z,30.10
2018-10-11T02:12:28.975Z,27.98
2018-10-11T02:15:02.945Z,32.20
2018-10-11T02:17:36.890Z,33.48
2018-10-11T02:20:10.975Z,28.38
2018-10-11T02:22:44.927Z,33.02
2018-10-11T02:25:18.918Z,27.73
2018-10-11T02:27:52.863Z,28.32
2018-10-11T02:30:26.902Z,27.60
2018-10-11T02:33:01.033Z,27.65
2018-10-11T02:35:35.087Z,30.00
2018-10-11T02:38:09.105Z,27.37
2018-10-11T02:40:43.050Z,28.75
2018-10-11T02:43:16.982Z,35.60
2018-10-11T02:45:50.968Z,36.20
2018-10-11T02:48:24.894Z,33.15
2018-10-11T02:50:59.159Z,31.40
2018-10-11T02:53:33.137Z,37.65
2018-10-11T02:56:07.404Z,33.58
2018-10-11T02:58:52.408Z,31.93
2018-10-11T03:01:26.469Z,31.10
2018-10-11T03:04:04.517Z,30.32
2018-10-11T03:06:39.813Z,28.98
2018-10-11T03:09:13.989Z,36.93
2018-10-11T03:11:48.267Z,27.37
2018-10-11T03:14:22.276Z,28.45
2018-10-11T03:16:56.306Z,32.60
2018-10-11T03:19:30.279Z,31.48
2018-10-11T03:22:04.385Z,35.80
2018-10-11T03:24:38.422Z,29.05
2018-10-11T03:27:12.534Z,30.77
2018-10-11T03:29:46.547Z,30.95
2018-10-11T03:32:20.607Z,31.73
2018-10-11T03:34:54.595Z,31.65
2018-10-11T03:37:28.692Z,34.90
2018-10-11T03:40:02.625Z,31.40
2018-10-11T03:42:36.729Z,30.92
2018-10-11T03:45:11.027Z,30.88
2018-10-11T03:47:45.141Z,33.08
2018-10-11T03:50:19.105Z,35.85
2018-10-11T03:52:53.198Z,34.23
2018-10-11T03:55:27.626Z,31.93
2018-10-11T03:58:01.595Z,35.48
2018-10-11T04:00:35.617Z,33.65
2018-10-11T04:03:09.630Z,34.98
2018-10-11T04:05:43.595Z,29.70
2018-10-11T04:08:17.560Z,31.80
2018-10-11T04:10:52.538Z,30.57
2018-10-11T04:13:26.615Z,31.52
2018-10-11T04:16:00.959Z,32.93
2018-10-11T04:18:39.719Z,40.60
2018-10-11T04:21:13.636Z,35.45
2018-10-11T04:23:47.604Z,41.85
2018-10-11T04:26:21.680Z,42.15
2018-10-11T04:28:55.639Z,40.35
2018-10-11T04:31:29.612Z,41.53
2018-10-11T04:34:03.650Z,44.50
2018-10-11T04:36:37.591Z,46.40
2018-10-11T04:39:11.559Z,44.40
2018-10-11T04:41:45.526Z,39.00
2018-10-11T04:44:19.464Z,39.38
2018-10-11T04:46:53.489Z,36.05
2018-10-11T04:49:27.529Z,35.13
2018-10-11T04:52:01.512Z,43.85
2018-10-11T04:54:35.460Z,34.05
2018-10-11T04:57:09.445Z,41.42
2018-10-11T04:59:43.434Z,34.20
2018-10-11T05:02:17.393Z,39.53
2018-10-11T05:04:51.493Z,33.55
2018-10-11T05:07:25.537Z,35.00
2018-10-11T05:09:59.548Z,36.23
2018-10-11T05:12:33.568Z,35.10
2018-10-11T05:15:07.857Z,37.98
2018-10-11T05:17:42.920Z,41.48
2018-10-11T05:20:17.022Z,32.23
2018-10-11T05:22:51.044Z,33.83
2018-10-11T05:25:25.193Z,31.95
2018-10-11T05:27:59.205Z,33.08
2018-10-11T05:30:33.166Z,33.13
2018-10-11T05:33:07.329Z,30.82
2018-10-11T05:35:41.274Z,32.70
2018-10-11T05:38:15.379Z,31.60
2018-10-11T05:40:49.368Z,29.52
2018-10-11T05:43:23.566Z,39.57
2018-10-11T05:45:59.252Z,41.68
2018-10-11T05:48:34.478Z,34.92
2018-10-11T05:51:08.531Z,39.35
2018-10-11T05:53:42.604Z,30.12
2018-10-11T05:56:17.596Z,31.20
2018-10-11T05:58:52.382Z,31.33
2018-10-11T06:01:26.567Z,31.90
2018-10-11T06:04:00.661Z,36.87
2018-10-11T06:06:34.678Z,30.83
2018-10-11T06:09:10.300Z,32.93
2018-10-11T06:11:45.538Z,33.80
2018-10-11T06:14:19.603Z,33.63
2018-10-11T06:16:53.624Z,32.38
2018-10-11T06:19:27.805Z,33.67
2018-10-11T06:22:01.848Z,38.95
2018-10-11T06:24:36.319Z,31.17
2018-10-11T06:27:10.312Z,30.85
2018-10-11T06:29:44.355Z,31.65
2018-10-11T06:32:18.504Z,35.03
2018-10-11T06:34:52.617Z,33.10
2018-10-11T06:37:27.107Z,29.45
2018-10-11T06:40:02.196Z,31.33
2018-10-11T06:42:36.250Z,33.45
2018-10-11T06:45:11.351Z,33.05
2018-10-11T06:47:47.992Z,34.03
2018-10-11T06:50:22.143Z,31.95
2018-10-11T06:52:56.179Z,29.45
2018-10-11T06:55:30.183Z,31.23
2018-10-11T06:58:04.237Z,31.97
2018-10-11T07:00:38.199Z,30.90
2018-10-11T07:03:12.277Z,30.00
2018-10-11T07:05:46.276Z,28.77
2018-10-11T07:08:20.271Z,31.57
2018-10-11T07:10:54.776Z,26.55
2018-10-11T07:13:28.689Z,31.50
2018-10-11T07:16:02.839Z,29.35
2018-10-11T07:18:36.849Z,28.10
2018-10-11T07:21:11.114Z,28.80
2018-10-11T07:23:45.064Z,29.27
2018-10-11T07:26:19.089Z,27.58
2018-10-11T07:28:53.082Z,28.60
2018-10-11T07:31:27.080Z,28.73
2018-10-11T07:34:01.047Z,27.37
2018-10-11T07:36:35.010Z,26.73
2018-10-11T07:39:11.804Z,27.77
2018-10-11T07:41:45.897Z,27.87
2018-10-11T07:44:19.838Z,25.37
2018-10-11T07:46:53.868Z,25.97
2018-10-11T07:49:27.849Z,25.43
2018-10-11T07:52:01.793Z,25.62
2018-10-11T07:54:36.673Z,26.20
2018-10-11T07:57:10.787Z,26.00
2018-10-11T07:59:44.740Z,26.15
2018-10-11T08:02:18.833Z,27.77
2018-10-11T08:04:52.773Z,26.12
2018-10-11T08:07:26.849Z,25.77
2018-10-11T08:10:00.736Z,24.20
2018-10-11T08:12:34.801Z,23.87
2018-10-11T08:15:08.739Z,23.87
2018-10-11T08:17:43.015Z,23.85
2018-10-11T08:20:16.802Z,24.27
2018-10-11T08:22:50.786Z,23.90
2018-10-11T08:25:24.937Z,22.75
2018-10-11T08:28:00.241Z,25.25
2018-10-11T08:30:34.267Z,24.12
2018-10-11T08:33:08.450Z,22.15
2018-10-11T08:35:42.349Z,21.30
2018-10-11T08:38:16.690Z,22.32
2018-10-11T08:40:50.436Z,22.07
2018-10-11T08:43:24.692Z,21.40
2018-10-11T08:45:58.622Z,20.35
2018-10-11T08:48:32.592Z,20.65
2018-10-11T08:51:06.649Z,19.77
2018-10-11T08:53:40.783Z,20.02
2018-10-11T08:56:14.852Z,20.90
2018-10-11T08:58:48.854Z,19.90
2018-10-11T09:01:22.808Z,19.92
2018-10-11T09:03:57.533Z,20.40
2018-10-11T09:06:31.330Z,20.12
2018-10-11T09:09:07.759Z,20.57
2018-10-11T09:11:41.729Z,20.50
2018-10-11T09:14:15.802Z,19.50
2018-10-11T09:16:49.776Z,17.80
2018-10-11T09:19:23.874Z,17.40
2018-10-11T09:21:57.812Z,18.50
2018-10-11T09:24:31.921Z,16.00
2018-10-11T09:27:05.917Z,17.50
2018-10-11T09:29:39.925Z,18.50
2018-10-11T09:32:13.852Z,17.55
2018-10-11T09:34:47.837Z,17.67
2018-10-11T09:37:21.858Z,17.95
2018-10-11T09:39:55.913Z,18.42
2018-10-11T09:42:29.992Z,17.07
2018-10-11T09:45:04.190Z,17.05
2018-10-11T09:47:38.140Z,16.65
2018-10-11T09:50:12.135Z,15.78
2018-10-11T09:52:46.086Z,17.20
2018-10-11T09:55:20.148Z,16.42
2018-10-11T09:57:54.254Z,14.85
2018-10-11T10:00:33.206Z,15.35
2018-10-11T10:03:07.205Z,15.20
2018-10-11T10:05:41.215Z,16.12
2018-10-11T10:08:15.142Z,15.65
2018-10-11T10:10:49.095Z,16.52
2018-10-11T10:13:23.061Z,16.62
2018-10-11T10:15:57.057Z,16.57
2018-10-11T10:18:31.019Z,17.32
2018-10-11T10:21:05.272Z,16.15
2018-10-11T10:23:39.194Z,16.60
2018-10-11T10:26:13.197Z,14.70
2018-10-11T10:28:47.125Z,14.70
2018-10-11T10:31:21.116Z,16.00
2018-10-11T10:33:55.071Z,15.53
2018-10-11T10:36:29.068Z,15.75
2018-10-11T10:39:03.194Z,15.58
2018-10-11T10:41:37.153Z,15.90
2018-10-11T10:44:11.146Z,14.80
2018-10-11T10:46:45.193Z,15.43
2018-10-11T10:49:19.184Z,16.25
2018-10-11T10:51:53.225Z,16.20
2018-10-11T10:54:34.435Z,15.78
2018-10-11T10:57:08.441Z,16.07
2018-10-11T10:59:42.400Z,15.00
2018-10-11T11:02:16.500Z,13.88
2018-10-11T11:04:50.469Z,15.18
2018-10-11T11:07:24.820Z,13.75
2018-10-11T11:09:58.722Z,14.07
2018-10-11T11:12:32.797Z,14.68
2018-10-11T11:15:06.834Z,14.25
2018-10-11T11:17:40.811Z,15.32
2018-10-11T11:20:14.893Z,13.45
2018-10-11T11:22:48.982Z,16.35
2018-10-11T11:25:23.043Z,14.18
2018-10-11T11:27:57.025Z,15.00
2018-10-11T11:30:30.980Z,13.40
2018-10-11T11:33:04.982Z,12.63
2018-10-11T11:35:38.929Z,13.85
2018-10-11T11:38:12.923Z,13.78
2018-10-11T11:40:46.928Z,12.63
2018-10-11T11:43:20.914Z,12.68
2018-10-11T11:45:55.013Z,13.10
2018-10-11T11:48:29.105Z,13.03
2018-10-11T11:51:03.059Z,14.00
2018-10-11T11:53:37.495Z,12.60
2018-10-11T11:56:11.901Z,12.10
2018-10-11T11:58:45.904Z,12.47
2018-10-11T12:01:19.829Z,12.70
2018-10-11T12:03:53.985Z,11.50
2018-10-11T12:06:28.075Z,12.20
2018-10-11T12:09:02.140Z,12.20
2018-10-11T12:11:36.071Z,13.22
2018-10-11T12:14:10.363Z,13.30
2018-10-11T12:16:44.468Z,12.47
2018-10-11T12:19:18.353Z,12.45
2018-10-11T12:21:52.286Z,12.65
2018-10-11T12:24:26.274Z,12.40
2018-10-11T12:27:00.257Z,11.70
2018-10-11T12:29:34.214Z,12.82
2018-10-11T12:32:08.351Z,13.95
2018-10-11T12:34:42.377Z,12.78
2018-10-11T12:37:16.351Z,11.90
2018-10-11T12:39:50.433Z,11.85
2018-10-11T12:42:24.498Z,12.55
2018-10-11T12:44:58.470Z,12.63
2018-10-11T12:47:32.440Z,12.10
2018-10-11T12:50:07.013Z,11.80
2018-10-11T12:52:41.279Z,11.25
2018-10-11T12:55:15.400Z,14.10
2018-10-11T12:57:49.331Z,12.35
2018-10-11T13:00:23.355Z,11.83
2018-10-11T13:02:57.406Z,12.55
2018-10-11T13:05:31.350Z,12.18
2018-10-11T13:08:05.332Z,11.33
2018-10-11T13:10:39.364Z,12.25
2018-10-11T13:13:13.393Z,15.53
2018-10-11T13:15:47.548Z,11.93
2018-10-11T13:18:21.570Z,11.43
2018-10-11T13:20:55.537Z,11.45
2018-10-11T13:23:29.471Z,13.22
2018-10-11T13:26:03.458Z,11.35
2018-10-11T13:28:37.519Z,11.83
2018-10-11T13:31:11.490Z,11.75
2018-10-11T13:33:45.485Z,11.60
2018-10-11T13:36:19.470Z,12.23
2018-10-11T13:38:53.436Z,11.90
2018-10-11T13:41:27.644Z,16.65
2018-10-11T13:44:01.534Z,12.33
2018-10-11T13:46:35.612Z,11.05
2018-10-11T13:49:09.657Z,10.50
2018-10-11T13:51:43.759Z,11.38
2018-10-11T13:54:18.843Z,10.80
2018-10-11T13:56:58.013Z,12.00
2018-10-11T13:59:26.979Z,13.50
2018-10-11T14:02:01.048Z,11.65
2018-10-11T14:04:35.080Z,11.10
2018-10-11T14:07:09.034Z,14.40
2018-10-11T14:09:42.994Z,11.70
2018-10-11T14:12:17.180Z,11.12
2018-10-11T14:14:51.141Z,10.80
2018-10-11T14:17:25.143Z,10.45
2018-10-11T14:19:59.089Z,11.57
2018-10-11T14:22:33.187Z,12.68
2018-10-11T14:25:08.031Z,10.63
2018-10-11T14:27:42.176Z,10.88
2018-10-11T14:30:16.133Z,11.40
2018-10-11T14:32:50.165Z,11.03
2018-10-11T14:35:24.142Z,11.50
2018-10-11T14:37:58.171Z,10.82
2018-10-11T14:40:32.129Z,10.68
2018-10-11T14:43:06.468Z,10.63
2018-10-11T14:45:40.464Z,10.05
2018-10-11T14:48:14.645Z,10.82
2018-10-11T14:50:48.662Z,10.90
2018-10-11T14:53:22.637Z,10.65
2018-10-11T14:55:56.588Z,9.98
2018-10-11T14:58:30.590Z,10.40
2018-10-11T15:01:04.591Z,11.20
2018-10-11T15:03:38.559Z,11.78
2018-10-11T15:06:12.546Z,10.63
2018-10-11T15:08:46.503Z,9.98
2018-10-11T15:11:20.554Z,10.65
2018-10-11T15:13:54.514Z,10.58
2018-10-11T15:16:28.490Z,10.13
2018-10-11T15:19:02.552Z,11.85
2018-10-11T15:21:36.469Z,13.65
2018-10-11T15:24:10.539Z,11.15
2018-10-11T15:26:44.554Z,9.63
2018-10-11T15:29:18.694Z,11.63
2018-10-11T15:31:52.635Z,9.23
2018-10-11T15:34:26.621Z,9.48
2018-10-11T15:37:00.710Z,12.60
2018-10-11T15:39:34.699Z,9.98
2018-10-11T15:42:08.717Z,13.70
2018-10-11T15:44:42.778Z,9.18
2018-10-11T15:47:16.775Z,9.55
2018-10-11T15:49:50.787Z,10.13
2018-10-11T15:52:24.793Z,14.13
2018-10-11T15:54:58.860Z,10.03
2018-10-11T15:57:32.804Z,9.63
2018-10-11T16:00:07.103Z,11.95
2018-10-11T16:02:41.047Z,8.63
2018-10-11T16:05:15.075Z,10.70
2018-10-11T16:07:49.012Z,11.93
2018-10-11T16:10:23.046Z,11.55
2018-10-11T16:12:57.034Z,11.12
2018-10-11T16:15:31.127Z,14.00
2018-10-11T16:18:05.044Z,10.35
2018-10-11T16:20:39.223Z,9.93
2018-10-11T16:23:13.263Z,8.73
2018-10-11T16:25:47.416Z,11.15
2018-10-11T16:28:21.406Z,11.68
2018-10-11T16:30:55.443Z,10.58
2018-10-11T16:33:29.424Z,9.78
2018-10-11T16:36:03.433Z,10.03
2018-10-11T16:38:37.503Z,10.40
2018-10-11T16:41:11.645Z,10.43
2018-10-11T16:43:45.597Z,10.35
2018-10-11T16:46:19.632Z,10.68
2018-10-11T16:48:53.604Z,11.83
2018-10-11T16:51:27.595Z,10.90
2018-10-11T16:54:01.616Z,9.25
2018-10-11T16:56:35.646Z,10.05
2018-10-11T16:59:09.630Z,14.03
2018-10-11T17:01:43.685Z,9.50
2018-10-11T17:04:18.014Z,9.20
2018-10-11T17:06:52.060Z,9.75
2018-10-11T17:09:25.999Z,9.28
2018-10-11T17:12:02.495Z,9.68
2018-10-11T17:14:36.426Z,9.15
2018-10-11T17:17:10.432Z,9.65
2018-10-11T17:19:44.431Z,9.68
2018-10-11T17:22:18.515Z,10.03
2018-10-11T17:24:52.528Z,9.83
2018-10-11T17:27:26.560Z,10.63
2018-10-11T17:30:00.463Z,10.58
2018-10-11T17:32:34.443Z,11.03
2018-10-11T17:35:08.453Z,12.65
2018-10-11T17:37:42.528Z,11.45
2018-10-11T17:40:16.553Z,14.35
2018-10-11T17:42:50.576Z,13.32
2018-10-11T17:45:24.628Z,11.28
2018-10-11T17:47:58.605Z,12.07
2018-10-11T17:50:32.797Z,12.47
2018-10-11T17:53:07.263Z,14.10
2018-10-11T17:55:41.189Z,23.70
2018-10-11T17:58:15.148Z,19.50
2018-10-11T18:00:49.180Z,18.60
2018-10-11T18:03:23.186Z,14.45
2018-10-11T18:05:57.130Z,17.25
2018-10-11T18:08:31.480Z,15.05
2018-10-11T18:11:05.509Z,16.95
2018-10-11T18:13:39.604Z,17.87
2018-10-11T18:16:13.708Z,26.52
2018-10-11T18:18:47.738Z,27.48
2018-10-11T18:21:21.778Z,30.95
2018-10-11T18:23:55.729Z,23.40
2018-10-11T18:26:29.701Z,25.05
2018-10-11T18:29:03.888Z,23.80
2018-10-11T18:31:37.952Z,22.37
2018-10-11T18:34:11.948Z,18.60
2018-10-11T18:36:45.874Z,17.00
2018-10-11T18:39:19.856Z,17.15
2018-10-11T18:41:53.852Z,18.25
2018-10-11T18:44:27.975Z,17.42
2018-10-11T18:47:01.967Z,22.98
2018-10-11T18:49:36.049Z,17.00
2018-10-11T18:52:10.048Z,15.53
2018-10-11T18:54:44.326Z,15.53
2018-10-11T18:57:18.306Z,16.27
2018-10-11T18:59:52.634Z,15.50
2018-10-11T19:02:26.681Z,14.28
2018-10-11T19:05:00.745Z,15.38
2018-10-11T19:07:34.711Z,15.30
2018-10-11T19:10:09.825Z,14.33
2018-10-11T19:12:43.931Z,14.93
2018-10-11T19:15:19.870Z,17.10
2018-10-11T19:17:53.914Z,17.15
2018-10-11T19:20:28.127Z,15.48
2018-10-11T19:23:02.036Z,13.93
2018-10-11T19:25:36.726Z,15.60
2018-10-11T19:28:10.715Z,17.12
2018-10-11T19:30:44.763Z,16.73
2018-10-11T19:33:18.815Z,15.88
2018-10-11T19:35:52.801Z,16.77
2018-10-11T19:38:26.884Z,17.20
2018-10-11T19:41:01.065Z,15.50
2018-10-11T19:43:35.119Z,16.60
2018-10-11T19:46:09.810Z,14.13
2018-10-11T19:48:43.874Z,20.72
2018-10-11T19:51:17.925Z,14.40
2018-10-11T19:53:51.950Z,16.85
2018-10-11T19:56:31.325Z,15.88
2018-10-11T19:59:05.387Z,17.95
2018-10-11T20:01:39.361Z,15.32
2018-10-11T20:04:13.410Z,16.82
2018-10-11T20:06:47.359Z,16.00
2018-10-11T20:09:21.328Z,16.02
2018-10-11T20:11:55.317Z,13.98
2018-10-11T20:14:29.278Z,17.65
2018-10-11T20:17:03.387Z,16.55
2018-10-11T20:19:37.401Z,18.15
2018-10-11T20:22:12.284Z,15.63
2018-10-11T20:24:46.309Z,17.52
2018-10-11T20:27:20.259Z,16.35
2018-10-11T20:29:54.908Z,18.15
2018-10-11T20:32:28.988Z,16.17
2018-10-11T20:35:02.986Z,19.67
2018-10-11T20:37:37.287Z,18.90
2018-10-11T20:40:11.509Z,16.97
2018-10-11T20:42:45.467Z,19.75
2018-10-11T20:45:19.533Z,17.65
2018-10-11T20:47:53.525Z,17.50
2018-10-11T20:50:27.695Z,16.42
2018-10-11T20:53:01.736Z,16.87
2018-10-11T20:55:35.833Z,16.90
2018-10-11T20:58:10.010Z,15.63
2018-10-11T21:00:44.332Z,20.60
2018-10-11T21:03:18.350Z,17.90
2018-10-11T21:05:52.384Z,18.70
2018-10-11T21:08:26.443Z,18.00
2018-10-11T21:11:00.481Z,16.15
2018-10-11T21:13:34.491Z,16.42
2018-10-11T21:16:08.579Z,18.57
2018-10-11T21:18:42.558Z,17.55
2018-10-11T21:21:16.510Z,18.77
2018-10-11T21:23:50.484Z,16.97
2018-10-11T21:26:24.478Z,17.82
2018-10-11T21:28:58.427Z,17.70
2018-10-11T21:31:32.388Z,15.95
2018-10-11T21:34:06.590Z,17.73
2018-10-11T21:36:40.531Z,17.87
2018-10-11T21:39:14.592Z,17.85
2018-10-11T21:41:48.725Z,17.87
2018-10-11T21:44:22.787Z,18.42
2018-10-11T21:46:56.885Z,18.45
2018-10-11T21:49:31.278Z,20.08
2018-10-11T21:52:05.456Z,18.52
2018-10-11T21:54:39.377Z,19.53
2018-10-11T21:57:13.350Z,16.85
2018-10-11T21:59:47.371Z,18.03
2018-10-11T22:02:21.362Z,24.00
2018-10-11T22:04:55.321Z,24.10
2018-10-11T22:07:29.392Z,21.17
2018-10-11T22:10:03.380Z,17.93
2018-10-11T22:12:37.315Z,17.97
2018-10-11T22:15:11.403Z,20.87
2018-10-11T22:17:45.389Z,17.80
2018-10-11T22:20:19.454Z,21.90
2018-10-11T22:22:53.462Z,21.23
2018-10-11T22:25:28.769Z,23.03
2018-10-11T22:28:02.779Z,19.73
2018-10-11T22:30:36.752Z,18.33
2018-10-11T22:33:10.750Z,18.23
2018-10-11T22:35:44.727Z,18.03
2018-10-11T22:38:18.889Z,19.50
2018-10-11T22:40:52.970Z,20.63
2018-10-11T22:43:27.003Z,18.43
2018-10-11T22:46:01.106Z,21.80
2018-10-11T22:48:35.140Z,20.00
2018-10-11T22:51:09.192Z,20.77
2018-10-11T22:53:43.501Z,19.17
2018-10-11T22:56:21.050Z,22.33
2018-10-11T22:58:55.136Z,22.37
2018-10-11T23:01:29.179Z,27.63
2018-10-11T23:04:03.297Z,22.33
2018-10-11T23:06:37.235Z,21.47
2018-10-11T23:09:11.411Z,21.13
2018-10-11T23:11:45.424Z,20.47
2018-10-11T23:14:19.561Z,21.23
2018-10-11T23:16:53.520Z,21.20
2018-10-11T23:19:27.883Z,22.80
2018-10-11T23:22:01.828Z,23.47
2018-10-11T23:24:35.764Z,21.80
2018-10-11T23:27:09.697Z,23.77
2018-10-11T23:29:43.655Z,21.87
2018-10-11T23:32:17.567Z,23.43
2018-10-11T23:34:51.514Z,22.70
2018-10-11T23:37:25.530Z,21.00
2018-10-11T23:39:59.913Z,21.93
2018-10-11T23:42:33.864Z,24.87
2018-10-11T23:45:09.055Z,27.50
2018-10-11T23:47:43.585Z,19.93
2018-10-11T23:50:17.699Z,21.53
2018-10-11T23:52:51.655Z,20.47
2018-10-11T23:55:25.700Z,19.60
2018-10-11T23:57:59.962Z,19.63
